Time;durP1;ratioP1;P1;durP2;ratioP2;P2;SDS_P1;SDS_P2;PMS_P1;PMS_P2;Temp;Humidity;BMP_temperature;BMP_pressure;BME280_temperature;BME280_humidity;BME280_pressure;Samples;Min_cycle;Max_cycle;Signal;HPM_P1;HPM_P2
2023/07/07 00:02:08;;;;;;;7.60;2.80;;;16.30;1.00;;;;;;5050656;28;20389;-71
2023/07/07 00:04:33;;;;;;;8.05;3.00;;;16.40;1.00;;;;;;5050808;28;20390;-71
2023/07/07 00:06:59;;;;;;;8.97;3.10;;;16.40;1.00;;;;;;5050054;28;20920;-71
2023/07/07 00:09:25;;;;;;;9.60;2.80;;;16.40;1.00;;;;;;5050416;28;20393;-71
2023/07/07 00:11:51;;;;;;;7.00;2.47;;;16.40;1.00;;;;;;5031726;28;20421;-71
2023/07/07 00:14:16;;;;;;;8.93;3.37;;;16.30;1.00;;;;;;5031990;28;20393;-70
2023/07/07 00:16:42;;;;;;;10.80;3.45;;;16.30;73.00;;;;;;5031930;28;20472;-73
2023/07/07 00:19:09;;;;;;;8.17;3.07;;;16.20;99.90;;;;;;5032142;28;20394;-71
2023/07/07 00:21:36;;;;;;;7.82;3.10;;;16.20;1.00;;;;;;5031536;28;20393;-71
2023/07/07 00:24:01;;;;;;;6.88;2.60;;;16.20;1.70;;;;;;5049912;28;21149;-71
2023/07/07 00:26:27;;;;;;;7.13;2.70;;;16.10;53.20;;;;;;5049960;28;20413;-71
2023/07/07 00:28:52;;;;;;;7.60;2.75;;;16.10;99.90;;;;;;5050064;28;20382;-71
2023/07/07 00:31:22;;;;;;;7.68;3.03;;;16.00;99.90;;;;;;5049356;28;20925;-71
2023/07/07 00:33:48;;;;;;;10.02;3.17;;;15.90;1.00;;;;;;5049264;28;20532;-71
2023/07/07 00:36:13;;;;;;;7.57;2.60;;;15.90;1.00;;;;;;5049351;28;20404;-71
2023/07/07 00:38:39;;;;;;;9.30;2.90;;;15.80;1.00;;;;;;5050002;28;20398;-71
2023/07/07 00:41:07;;;;;;;9.82;3.08;;;15.90;99.90;;;;;;5049637;28;20397;-71
2023/07/07 00:43:34;;;;;;;8.67;3.10;;;15.90;99.90;;;;;;5049533;28;20925;-71
2023/07/07 00:46:00;;;;;;;8.55;2.95;;;15.90;99.90;;;;;;5049708;28;20808;-71
2023/07/07 00:48:43;;;;;;;8.27;2.25;;;15.80;1.00;;;;;;5049634;28;20393;-71
2023/07/07 00:51:31;;;;;;;9.17;3.20;;;15.70;1.00;;;;;;5050014;28;20416;-71
2023/07/07 00:53:57;;;;;;;7.90;3.00;;;15.80;1.00;;;;;;5049463;28;20541;-71
2023/07/07 00:56:34;;;;;;;8.40;3.42;;;15.70;1.00;;;;;;5049354;28;20404;-71
2023/07/07 00:59:05;;;;;;;7.30;2.80;;;15.60;1.00;;;;;;5049739;28;20870;-71
2023/07/07 01:01:31;;;;;;;10.30;3.35;;;15.60;1.00;;;;;;5049321;28;20397;-72
2023/07/07 01:04:01;;;;;;;7.53;2.80;;;15.60;1.00;;;;;;5048940;28;20393;-71
2023/07/07 01:06:30;;;;;;;7.40;2.80;;;15.70;1.00;;;;;;5048779;28;20404;-71
2023/07/07 01:09:02;;;;;;;8.10;2.92;;;15.60;1.00;;;;;;5049207;28;20766;-71
2023/07/07 01:11:30;;;;;;;9.60;3.00;;;15.70;1.00;;;;;;5048969;28;20417;-71
2023/07/07 01:13:57;;;;;;;7.15;2.70;;;15.60;1.00;;;;;;5049233;28;20423;-71
2023/07/07 01:16:51;;;;;;;9.43;3.42;;;15.60;1.00;;;;;;5048996;28;20770;-71
2023/07/07 01:19:40;;;;;;;11.55;2.97;;;15.40;99.90;;;;;;5048625;28;20405;-71
2023/07/07 01:22:15;;;;;;;9.35;3.00;;;15.40;99.90;;;;;;5048937;28;20469;-71
2023/07/07 01:24:59;;;;;;;8.98;3.15;;;15.30;99.90;;;;;;5049633;28;20800;-70
2023/07/07 01:27:46;;;;;;;7.70;3.28;;;15.30;99.90;;;;;;5048555;28;20420;-71
2023/07/07 01:30:23;;;;;;;8.90;3.10;;;15.30;99.90;;;;;;5049102;28;20421;-71
2023/07/07 01:32:50;;;;;;;7.72;2.63;;;15.30;99.90;;;;;;5047675;28;20893;-71
2023/07/07 01:35:19;;;;;;;8.57;3.20;;;15.30;99.90;;;;;;5048518;28;21007;-71
2023/07/07 01:37:59;;;;;;;8.23;3.00;;;15.30;99.90;;;;;;5048643;28;20397;-71
2023/07/07 01:40:53;;;;;;;9.75;2.80;;;15.30;99.90;;;;;;5049089;28;20386;-70
2023/07/07 01:43:36;;;;;;;8.00;3.00;;;15.20;99.90;;;;;;5048310;28;20967;-70
2023/07/07 01:46:12;;;;;;;7.93;2.83;;;15.10;1.00;;;;;;5048824;28;20412;-70
2023/07/07 01:49:03;;;;;;;8.30;2.80;;;15.00;1.00;;;;;;5049089;28;20849;-70
2023/07/07 01:51:35;;;;;;;11.03;3.23;;;15.00;99.90;;;;;;5048516;28;20429;-70
2023/07/07 01:54:03;;;;;;;8.57;3.05;;;15.00;99.90;;;;;;5031083;28;20894;-70
2023/07/07 01:56:31;;;;;;;10.88;3.03;;;15.00;99.90;;;;;;5048933;28;20395;-71
2023/07/07 01:58:57;;;;;;;8.30;3.13;;;14.90;57.20;;;;;;5048751;28;20398;-71
2023/07/07 02:01:23;;;;;;;8.38;3.50;;;14.90;99.90;;;;;;5030370;28;20393;-71
2023/07/07 02:03:48;;;;;;;10.57;3.77;;;14.90;99.90;;;;;;5048172;28;20508;-71
2023/07/07 02:06:14;;;;;;;9.47;3.30;;;14.80;99.90;;;;;;5048679;28;20393;-71
2023/07/07 02:08:39;;;;;;;7.57;2.78;;;14.90;99.90;;;;;;5048926;28;20819;-70
2023/07/07 02:11:05;;;;;;;8.23;3.00;;;14.90;2.90;;;;;;5048469;28;20421;-70
2023/07/07 02:13:30;;;;;;;7.70;3.10;;;14.90;1.00;;;;;;5048610;28;20459;-70
2023/07/07 02:15:56;;;;;;;8.77;3.27;;;14.80;1.00;;;;;;5048430;28;20455;-70
2023/07/07 02:18:27;;;;;;;8.67;3.33;;;14.70;99.90;;;;;;5047950;28;20446;-70
2023/07/07 02:20:53;;;;;;;9.80;3.10;;;14.70;99.90;;;;;;5030440;28;20401;-70
2023/07/07 02:23:18;;;;;;;11.07;3.40;;;14.60;1.00;;;;;;5048426;28;20393;-70
2023/07/07 02:25:44;;;;;;;9.23;3.45;;;14.60;1.00;;;;;;5048508;28;20468;-71
2023/07/07 02:28:09;;;;;;;10.45;3.70;;;14.60;99.90;;;;;;5031040;28;20489;-70
2023/07/07 02:30:35;;;;;;;7.70;3.10;;;14.70;99.90;;;;;;5052548;28;20411;-70
2023/07/07 02:33:01;;;;;;;8.45;3.38;;;14.70;99.90;;;;;;5068476;28;20394;-70
2023/07/07 02:35:26;;;;;;;8.90;3.50;;;14.70;1.00;;;;;;5068356;28;20388;-71
2023/07/07 02:37:52;;;;;;;11.80;2.87;;;14.60;1.00;;;;;;5068186;28;20375;-70
2023/07/07 02:40:17;;;;;;;8.60;3.40;;;14.60;11.40;;;;;;5068981;28;20776;-71
2023/07/07 02:42:43;;;;;;;9.10;3.37;;;14.50;99.90;;;;;;5069335;28;20380;-71
2023/07/07 02:45:10;;;;;;;9.02;2.92;;;14.50;99.90;;;;;;5072405;28;20379;-70
2023/07/07 02:47:36;;;;;;;8.75;2.80;;;14.40;1.00;;;;;;5071859;28;20476;-71
2023/07/07 02:50:02;;;;;;;7.20;2.90;;;14.40;1.00;;;;;;5072281;28;20402;-71
2023/07/07 02:52:29;;;;;;;8.45;3.17;;;14.40;1.00;;;;;;5071906;28;20975;-70
2023/07/07 02:54:55;;;;;;;9.45;3.10;;;14.40;1.00;;;;;;5054753;28;20470;-71
2023/07/07 02:57:20;;;;;;;9.57;3.00;;;14.30;99.90;;;;;;5054299;28;20460;-71
2023/07/07 02:59:46;;;;;;;8.23;3.03;;;14.30;1.00;;;;;;5053728;28;20486;-71
2023/07/07 03:02:12;;;;;;;9.00;3.20;;;14.30;1.00;;;;;;5073085;28;20423;-70
2023/07/07 03:04:37;;;;;;;9.70;3.20;;;14.20;2.80;;;;;;5079018;28;20940;-71
2023/07/07 03:07:03;;;;;;;8.60;3.30;;;14.20;2.90;;;;;;5085206;28;20403;-70
2023/07/07 03:09:28;;;;;;;9.67;3.50;;;14.20;99.90;;;;;;5048584;28;20565;-70
2023/07/07 03:11:54;;;;;;;9.50;3.30;;;14.20;99.90;;;;;;5077739;28;20772;-70
2023/07/07 03:14:20;;;;;;;8.55;3.47;;;14.20;1.00;;;;;;5077417;28;20388;-70
2023/07/07 03:16:51;;;;;;;7.95;3.20;;;14.20;1.00;;;;;;5077848;28;20492;-71
2023/07/07 03:19:19;;;;;;;9.60;3.40;;;14.10;99.90;;;;;;5078435;28;20384;-70
2023/07/07 03:21:44;;;;;;;7.90;3.33;;;14.20;1.00;;;;;;5074513;28;20478;-71
2023/07/07 03:24:10;;;;;;;8.93;3.47;;;14.30;99.90;;;;;;5073249;28;20485;-71
2023/07/07 03:26:36;;;;;;;9.63;3.85;;;14.30;99.90;;;;;;5072411;28;20392;-70
2023/07/07 03:29:02;;;;;;;11.85;3.67;;;14.10;62.00;;;;;;5054577;28;20402;-70
2023/07/07 03:31:30;;;;;;;7.50;2.70;;;14.10;1.00;;;;;;5070966;28;20927;-70
2023/07/07 03:33:58;;;;;;;10.23;3.80;;;14.10;1.00;;;;;;5071353;28;20449;-70
2023/07/07 03:36:25;;;;;;;9.25;3.28;;;14.20;99.90;;;;;;5070652;28;20900;-70
2023/07/07 03:38:51;;;;;;;12.68;2.92;;;14.20;99.90;;;;;;5071257;28;20471;-70
2023/07/07 03:41:19;;;;;;;7.40;2.90;;;14.10;99.90;;;;;;5068037;28;20495;-70
2023/07/07 03:43:45;;;;;;;8.97;3.10;;;14.10;1.00;;;;;;5070278;28;20425;-71
2023/07/07 03:46:15;;;;;;;7.57;2.72;;;14.20;99.90;;;;;;5072188;28;20399;-70
2023/07/07 03:48:42;;;;;;;9.10;4.20;;;14.20;1.00;;;;;;5072835;28;20459;-70
2023/07/07 03:51:09;;;;;;;8.35;3.75;;;14.20;1.00;;;;;;5071481;28;20419;-70
2023/07/07 03:53:34;;;;;;;9.03;3.30;;;14.20;1.00;;;;;;5070881;28;20427;-70
2023/07/07 03:56:00;;;;;;;10.40;4.18;;;14.30;99.90;;;;;;5069806;28;20423;-70
2023/07/07 03:58:27;;;;;;;9.05;3.58;;;14.30;1.00;;;;;;5070286;28;20395;-71
2023/07/07 04:00:53;;;;;;;8.48;3.42;;;14.30;99.90;;;;;;5052751;28;20388;-71
2023/07/07 04:03:20;;;;;;;8.90;3.50;;;14.30;1.00;;;;;;5070821;28;20417;-71
2023/07/07 04:05:49;;;;;;;9.13;3.63;;;14.50;1.00;;;;;;5070583;28;20402;-71
2023/07/07 04:08:21;;;;;;;8.10;3.28;;;14.50;1.00;;;;;;5070579;28;20778;-70
2023/07/07 04:11:01;;;;;;;6.72;2.53;;;14.60;2.10;;;;;;5070670;28;20537;-70
2023/07/07 04:13:29;;;;;;;8.73;3.13;;;14.50;1.00;;;;;;5070273;28;20388;-70
2023/07/07 04:16:04;;;;;;;9.18;3.50;;;14.50;1.00;;;;;;5070314;28;20461;-70
2023/07/07 04:18:31;;;;;;;9.57;4.00;;;14.60;1.00;;;;;;5070576;28;20422;-71
2023/07/07 04:21:20;;;;;;;7.50;3.03;;;14.70;1.00;;;;;;5052636;28;20388;-70
2023/07/07 04:23:48;;;;;;;11.27;3.50;;;14.90;99.90;;;;;;5052213;28;20776;-70
2023/07/07 04:26:15;;;;;;;14.63;6.18;;;15.00;99.90;;;;;;5068723;28;20864;-71
2023/07/07 04:28:42;;;;;;;11.40;4.75;;;14.90;1.00;;;;;;5070409;28;20884;-70
2023/07/07 04:31:11;;;;;;;8.60;3.43;;;14.90;1.00;;;;;;5070726;28;20475;-71
2023/07/07 04:33:37;;;;;;;10.68;4.35;;;15.10;1.00;;;;;;5070601;28;20383;-71
2023/07/07 04:36:07;;;;;;;9.05;3.90;;;15.30;1.00;;;;;;5070167;28;20394;-71
2023/07/07 04:38:34;;;;;;;11.00;3.90;;;15.50;99.90;;;;;;5069845;28;20469;-71
2023/07/07 04:41:13;;;;;;;12.90;4.13;;;15.40;1.00;;;;;;5069896;28;20416;-71
2023/07/07 04:44:00;;;;;;;15.07;3.90;;;15.60;1.10;;;;;;5069778;28;20396;-71
2023/07/07 04:46:29;;;;;;;11.20;3.95;;;15.80;1.00;;;;;;5069098;28;20396;-71
2023/07/07 04:48:55;;;;;;;12.30;4.32;;;16.00;99.90;;;;;;5069695;28;20392;-71
2023/07/07 04:51:21;;;;;;;10.80;4.63;;;16.20;99.90;;;;;;5070648;28;20416;-71
2023/07/07 04:53:46;;;;;;;8.63;3.25;;;16.30;99.90;;;;;;5068632;28;20486;-71
2023/07/07 04:56:15;;;;;;;9.57;4.35;;;16.50;91.20;;;;;;5068372;28;20909;-74
2023/07/07 04:58:42;;;;;;;10.90;4.20;;;16.60;1.00;;;;;;5069643;28;20426;-71
2023/07/07 05:01:10;;;;;;;9.98;3.85;;;16.90;1.00;;;;;;5068899;28;20430;-71
2023/07/07 05:03:37;;;;;;;12.93;4.57;;;17.70;99.90;;;;;;5068737;28;20380;-72
2023/07/07 05:06:04;;;;;;;10.18;4.63;;;18.90;1.00;;;;;;5068976;28;20390;-72
2023/07/07 05:08:39;;;;;;;9.07;4.22;;;20.60;1.00;;;;;;5069144;28;20388;-72
2023/07/07 05:11:06;;;;;;;10.90;4.00;;;22.20;99.90;;;;;;5068974;28;20415;-72
2023/07/07 05:13:31;;;;;;;11.00;4.10;;;23.20;99.90;;;;;;5069522;28;20479;-72
2023/07/07 05:16:08;;;;;;;9.80;3.73;;;24.10;99.90;;;;;;5069135;28;20437;-72
2023/07/07 05:18:34;;;;;;;9.98;4.10;;;25.20;99.90;;;;;;5068812;28;20407;-72
2023/07/07 05:21:00;;;;;;;11.23;3.60;;;26.30;99.90;;;;;;5069122;28;20814;-72
2023/07/07 05:23:25;;;;;;;10.40;3.70;;;26.90;99.90;;;;;;5069054;28;20943;-72
2023/07/07 05:25:52;;;;;;;10.90;4.00;;;27.10;99.90;;;;;;5068845;28;20388;-72
2023/07/07 05:28:18;;;;;;;9.93;4.35;;;27.30;99.90;;;;;;5069146;28;20538;-72
2023/07/07 05:30:44;;;;;;;10.98;4.32;;;27.50;99.90;;;;;;5068785;28;20919;-73
2023/07/07 05:33:10;;;;;;;11.07;4.25;;;27.80;99.90;;;;;;5055521;28;20404;-72
2023/07/07 05:35:45;;;;;;;10.37;4.67;;;27.40;99.90;;;;;;5068963;28;20384;-73
2023/07/07 05:38:10;;;;;;;10.18;5.22;;;27.10;99.90;;;;;;5069334;28;20410;-73
2023/07/07 05:40:39;;;;;;;13.90;4.77;;;26.90;99.90;;;;;;5068700;28;20865;-73
2023/07/07 05:43:05;;;;;;;11.07;4.22;;;26.80;99.90;;;;;;5068499;28;20437;-73
2023/07/07 05:45:30;;;;;;;10.23;5.20;;;26.90;99.90;;;;;;5068650;28;20399;-73
2023/07/07 05:47:57;;;;;;;10.48;4.82;;;26.90;99.90;;;;;;5068642;28;20433;-73
2023/07/07 05:50:25;;;;;;;10.15;4.13;;;26.90;99.90;;;;;;5069281;28;20388;-73
2023/07/07 05:52:51;;;;;;;11.43;4.70;;;27.50;99.90;;;;;;5050407;28;20408;-73
2023/07/07 05:55:35;;;;;;;9.33;4.23;;;27.90;99.90;;;;;;5068402;28;20399;-73
2023/07/07 05:58:02;;;;;;;9.77;4.53;;;28.60;99.90;;;;;;5068423;28;20383;-73
2023/07/07 06:00:29;;;;;;;10.35;4.50;;;28.90;99.90;;;;;;5068956;28;20765;-73
2023/07/07 06:02:56;;;;;;;10.10;4.22;;;29.00;99.90;;;;;;5068744;28;20465;-70
2023/07/07 06:05:22;;;;;;;9.95;3.85;;;29.00;99.90;;;;;;5068892;28;20419;-72
2023/07/07 06:07:48;;;;;;;11.60;5.03;;;29.30;99.90;;;;;;5068412;28;20415;-72
2023/07/07 06:10:14;;;;;;;10.75;4.35;;;30.00;99.90;;;;;;5050451;28;20443;-72
2023/07/07 06:12:40;;;;;;;9.13;4.40;;;30.20;99.90;;;;;;5068958;28;20935;-72
2023/07/07 06:15:06;;;;;;;10.50;4.90;;;30.70;99.90;;;;;;5068930;28;20398;-72
2023/07/07 06:17:32;;;;;;;9.25;4.10;;;30.60;99.90;;;;;;5069153;28;20403;-72
2023/07/07 06:19:57;;;;;;;10.40;4.68;;;30.40;99.90;;;;;;5072833;28;20379;-72
2023/07/07 06:22:25;;;;;;;10.40;4.20;;;30.90;99.90;;;;;;5072331;28;20459;-72
2023/07/07 06:24:52;;;;;;;11.00;4.32;;;31.70;99.90;;;;;;5072336;28;20478;-72
2023/07/07 06:27:17;;;;;;;9.30;3.80;;;31.70;99.90;;;;;;5072333;28;20963;-72
2023/07/07 06:29:43;;;;;;;13.50;3.60;;;31.90;99.90;;;;;;5072633;28;20427;-73
2023/07/07 06:32:09;;;;;;;8.65;3.88;;;32.60;99.90;;;;;;5072493;28;20408;-72
2023/07/07 06:34:34;;;;;;;8.60;3.70;;;33.10;99.90;;;;;;5072620;28;20392;-72
2023/07/07 06:37:00;;;;;;;8.53;3.97;;;33.30;99.90;;;;;;5071967;28;20454;-72
2023/07/07 06:39:27;;;;;;;9.50;3.77;;;32.30;99.90;;;;;;5071783;28;20379;-72
2023/07/07 06:41:54;;;;;;;9.00;3.40;;;31.50;99.90;;;;;;5071861;28;20425;-72
2023/07/07 06:44:20;;;;;;;7.80;3.30;;;31.90;99.90;;;;;;5072051;28;20392;-72
2023/07/07 06:46:45;;;;;;;11.30;2.70;;;32.20;99.90;;;;;;5071627;28;20454;-72
2023/07/07 06:49:11;;;;;;;8.02;3.50;;;32.20;99.90;;;;;;5072409;28;20384;-72
2023/07/07 06:51:37;;;;;;;8.17;3.20;;;32.50;99.90;;;;;;5071648;28;20580;-72
2023/07/07 06:54:02;;;;;;;13.13;3.73;;;32.30;99.90;;;;;;5071583;28;20911;-72
2023/07/07 06:56:28;;;;;;;8.10;3.20;;;32.70;99.90;;;;;;5071869;28;21013;-72
2023/07/07 06:58:54;;;;;;;9.68;3.50;;;33.00;99.90;;;;;;5071987;28;20410;-73
2023/07/07 07:01:19;;;;;;;11.15;3.00;;;34.00;99.90;;;;;;5071967;28;20911;-72
2023/07/07 07:03:45;;;;;;;8.27;3.37;;;32.90;99.90;;;;;;5071808;28;20396;-72
2023/07/07 07:06:12;;;;;;;9.63;3.90;;;32.30;99.90;;;;;;5071521;28;20475;-72
2023/07/07 07:08:37;;;;;;;8.35;3.22;;;32.30;99.90;;;;;;5071870;28;20426;-72
2023/07/07 07:11:06;;;;;;;9.95;3.60;;;32.40;99.90;;;;;;5071485;28;20473;-72
2023/07/07 07:13:32;;;;;;;9.00;3.10;;;32.50;99.90;;;;;;5071584;28;20705;-72
2023/07/07 07:15:58;;;;;;;9.32;3.00;;;32.60;99.90;;;;;;5070960;28;20482;-72
2023/07/07 07:18:25;;;;;;;9.55;3.05;;;33.10;99.90;;;;;;5071086;28;20483;-73
2023/07/07 07:20:51;;;;;;;7.85;3.20;;;33.30;99.90;;;;;;5071427;28;20947;-72
2023/07/07 07:23:18;;;;;;;8.20;3.33;;;32.90;99.90;;;;;;5071606;28;20384;-73
2023/07/07 07:25:44;;;;;;;9.50;3.30;;;33.20;99.90;;;;;;5071588;28;20479;-73
2023/07/07 07:28:11;;;;;;;8.88;3.30;;;34.00;99.90;;;;;;5071810;28;20391;-73
2023/07/07 07:30:37;;;;;;;8.75;3.65;;;35.00;99.90;;;;;;5068926;28;20392;-73
2023/07/07 07:33:06;;;;;;;8.25;3.35;;;34.80;99.90;;;;;;5071296;28;20904;-73
2023/07/07 07:35:31;;;;;;;9.30;2.90;;;34.10;99.90;;;;;;5070894;28;20919;-73
2023/07/07 07:37:57;;;;;;;7.70;2.90;;;34.40;99.90;;;;;;5071186;28;20475;-74
2023/07/07 07:40:23;;;;;;;8.53;3.30;;;35.40;99.90;;;;;;5070948;28;20391;-73
2023/07/07 07:42:52;;;;;;;9.55;3.42;;;36.40;99.90;;;;;;5071264;28;20472;-73
2023/07/07 07:45:19;;;;;;;8.80;3.23;;;36.80;99.90;;;;;;5071344;28;20453;-73
2023/07/07 07:47:45;;;;;;;8.55;3.30;;;37.40;99.90;;;;;;5069842;28;20388;-73
2023/07/07 07:50:12;;;;;;;9.20;4.00;;;36.80;99.90;;;;;;5071050;28;20698;-73
2023/07/07 07:52:37;;;;;;;10.15;3.85;;;36.30;99.90;;;;;;5071077;28;20540;-73
2023/07/07 07:55:03;;;;;;;9.40;3.60;;;36.70;99.90;;;;;;5070597;28;20383;-73
2023/07/07 07:57:28;;;;;;;9.80;3.40;;;36.40;99.90;;;;;;5071034;28;20392;-73
2023/07/07 07:59:54;;;;;;;8.70;3.90;;;36.20;99.90;;;;;;5070748;28;20520;-73
2023/07/07 08:02:19;;;;;;;8.93;3.35;;;36.90;99.90;;;;;;5070609;28;20863;-73
2023/07/07 08:04:45;;;;;;;9.90;3.63;;;37.50;99.90;;;;;;5070568;28;20379;-73
2023/07/07 08:07:10;;;;;;;8.80;3.30;;;38.00;99.90;;;;;;5071590;28;20395;-73
2023/07/07 08:09:36;;;;;;;8.57;3.40;;;38.20;99.90;;;;;;5071384;28;20737;-73
2023/07/07 08:12:03;;;;;;;8.40;3.30;;;37.90;99.90;;;;;;5071176;28;20431;-73
2023/07/07 08:14:30;;;;;;;7.80;3.20;;;38.10;99.90;;;;;;5071039;28;20396;-73
2023/07/07 08:16:58;;;;;;;10.17;3.77;;;38.60;99.90;;;;;;5070198;28;20923;-73
2023/07/07 08:19:25;;;;;;;7.70;3.10;;;38.10;99.90;;;;;;5070345;28;20784;-73
2023/07/07 08:21:50;;;;;;;8.07;2.80;;;37.60;99.90;;;;;;5070457;28;20431;-73
2023/07/07 08:24:16;;;;;;;9.70;3.23;;;37.50;99.90;;;;;;5070920;28;20420;-73
2023/07/07 08:26:42;;;;;;;7.83;3.20;;;38.30;99.90;;;;;;5071812;28;20391;-76
2023/07/07 08:29:09;;;;;;;8.43;3.03;;;38.80;99.90;;;;;;5070915;28;20481;-73
2023/07/07 08:31:35;;;;;;;7.70;3.40;;;37.60;99.90;;;;;;5070438;28;20450;-73
2023/07/07 08:34:02;;;;;;;9.23;2.97;;;37.10;99.90;;;;;;5071091;28;20403;-74
2023/07/07 08:36:30;;;;;;;8.30;3.00;;;37.40;99.90;;;;;;5071135;28;20410;-73
2023/07/07 08:39:08;;;;;;;8.80;3.03;;;37.90;99.90;;;;;;5071709;28;20746;-72
2023/07/07 08:41:34;;;;;;;10.18;3.40;;;37.40;99.90;;;;;;5052892;28;20457;-73
2023/07/07 08:44:00;;;;;;;8.52;3.30;;;37.50;99.90;;;;;;5071568;28;20400;-74
2023/07/07 08:47:03;;;;;;;9.40;3.73;;;37.60;99.90;;;;;;5071741;28;20399;-73
2023/07/07 08:49:28;;;;;;;9.18;3.83;;;38.40;99.90;;;;;;5070487;28;20393;-73
2023/07/07 08:52:01;;;;;;;9.55;3.40;;;38.40;99.90;;;;;;5052953;28;20498;-73
2023/07/07 08:54:45;;;;;;;7.95;3.38;;;38.00;99.90;;;;;;5051543;28;20418;-73
2023/07/07 08:57:13;;;;;;;9.00;3.50;;;38.40;99.90;;;;;;5070200;28;20475;-73
2023/07/07 09:00:08;;;;;;;10.98;3.80;;;37.30;99.90;;;;;;5069920;28;20951;-73
2023/07/07 09:02:55;;;;;;;9.10;3.60;;;36.90;99.90;;;;;;5070325;28;20379;-73
2023/07/07 09:05:29;;;;;;;9.63;3.60;;;37.80;99.90;;;;;;5070108;28;20388;-73
2023/07/07 09:08:40;;;;;;;8.65;3.20;;;38.60;99.90;;;;;;5069791;28;20372;-74
2023/07/07 09:11:36;;;;;;;8.90;3.40;;;39.40;99.90;;;;;;5069769;28;20616;-73
2023/07/07 09:14:03;;;;;;;9.63;3.25;;;40.20;99.90;;;;;;5051768;28;20391;-73
2023/07/07 09:16:32;;;;;;;10.40;3.20;;;40.90;99.90;;;;;;5069477;28;20403;-73
2023/07/07 09:19:21;;;;;;;8.07;2.80;;;40.30;99.90;;;;;;5069137;28;20839;-74
2023/07/07 09:22:03;;;;;;;7.70;2.95;;;39.80;99.90;;;;;;5069594;28;20400;-74
2023/07/07 09:24:52;;;;;;;9.70;3.28;;;39.50;99.90;;;;;;5069415;28;20468;-73
2023/07/07 09:27:27;;;;;;;9.18;3.13;;;38.90;99.90;;;;;;5069501;28;20400;-74
2023/07/07 09:30:00;;;;;;;8.20;3.40;;;38.80;99.90;;;;;;5051699;28;20452;-74
2023/07/07 09:32:25;;;;;;;9.02;3.55;;;39.90;99.90;;;;;;5069207;28;20501;-74
2023/07/07 09:34:51;;;;;;;10.18;3.85;;;40.30;99.90;;;;;;5069573;28;20496;-74
2023/07/07 09:37:50;;;;;;;8.40;3.50;;;40.90;99.90;;;;;;5050784;28;20434;-74
2023/07/07 09:40:27;;;;;;;9.00;3.50;;;39.50;99.90;;;;;;5069441;28;20471;-74
2023/07/07 09:43:11;;;;;;;8.93;3.10;;;38.90;99.90;;;;;;5068745;28;20391;-73
2023/07/07 09:46:01;;;;;;;9.35;3.25;;;38.80;99.90;;;;;;5051258;28;20395;-73
2023/07/07 09:48:49;;;;;;;8.25;3.15;;;39.10;99.90;;;;;;5068744;28;20402;-73
2023/07/07 09:51:31;;;;;;;9.13;3.60;;;38.60;99.90;;;;;;5068889;28;20419;-73
2023/07/07 09:53:57;;;;;;;10.15;3.75;;;38.30;99.90;;;;;;5072172;28;20383;-73
2023/07/07 09:56:32;;;;;;;9.70;3.97;;;38.20;99.90;;;;;;5054714;28;20392;-73
2023/07/07 09:59:13;;;;;;;10.70;4.15;;;38.00;99.90;;;;;;5073143;28;20894;-73
2023/07/07 10:01:44;;;;;;;10.40;4.03;;;38.00;99.90;;;;;;5071793;28;20403;-73
2023/07/07 10:04:13;;;;;;;9.13;3.65;;;37.40;99.90;;;;;;5074862;28;20406;-73
2023/07/07 10:06:56;;;;;;;11.63;4.30;;;37.30;99.90;;;;;;5073349;28;20387;-73
2023/07/07 10:09:22;;;;;;;9.13;3.20;;;37.60;99.90;;;;;;5072918;28;20858;-73
2023/07/07 10:11:48;;;;;;;10.87;4.30;;;37.40;99.90;;;;;;5072958;28;20415;-73
2023/07/07 10:14:15;;;;;;;8.40;3.80;;;37.20;99.90;;;;;;5073539;28;20387;-73
2023/07/07 10:17:13;;;;;;;9.35;3.58;;;37.00;99.90;;;;;;5073392;28;20396;-73
2023/07/07 10:19:44;;;;;;;9.88;3.55;;;37.20;99.90;;;;;;5074382;28;20392;-73
2023/07/07 10:22:14;;;;;;;10.73;4.88;;;37.30;99.90;;;;;;5074661;28;20399;-73
2023/07/07 10:24:41;;;;;;;9.65;4.25;;;37.30;99.90;;;;;;5074866;28;20388;-73
2023/07/07 10:27:12;;;;;;;9.70;3.70;;;37.50;99.90;;;;;;5074137;28;20451;-73
2023/07/07 10:29:40;;;;;;;9.68;3.78;;;37.30;99.90;;;;;;5075304;28;20379;-73
2023/07/07 10:32:17;;;;;;;9.03;3.63;;;36.90;99.90;;;;;;5074561;28;20419;-73
2023/07/07 10:34:46;;;;;;;13.55;4.20;;;36.50;99.90;;;;;;5072239;28;20426;-73
2023/07/07 10:37:23;;;;;;;10.05;3.50;;;36.10;99.90;;;;;;5078351;28;20399;-73
2023/07/07 10:39:56;;;;;;;9.95;3.45;;;35.60;99.90;;;;;;5089495;28;20384;-73
2023/07/07 10:42:25;;;;;;;11.88;4.15;;;35.20;99.90;;;;;;5091066;28;20383;-73
2023/07/07 10:44:52;;;;;;;9.57;3.80;;;34.50;99.90;;;;;;5071401;28;20464;-73
2023/07/07 10:47:20;;;;;;;10.93;4.43;;;33.90;99.90;;;;;;5078204;28;20416;-73
2023/07/07 10:49:47;;;;;;;11.18;4.00;;;33.90;99.90;;;;;;5078386;28;20438;-72
2023/07/07 10:52:29;;;;;;;9.77;4.10;;;34.00;99.90;;;;;;5079917;28;20422;-71
2023/07/07 10:55:01;;;;;;;10.95;4.40;;;33.40;99.90;;;;;;5080119;28;20402;-72
2023/07/07 10:57:41;;;;;;;12.13;5.15;;;32.90;99.90;;;;;;5081255;28;20418;-72
2023/07/07 11:00:30;;;;;;;14.52;5.43;;;32.80;99.90;;;;;;5078177;28;20400;-72
2023/07/07 11:03:26;;;;;;;12.65;5.15;;;32.90;99.90;;;;;;5075805;28;20387;-72
2023/07/07 11:06:10;;;;;;;12.20;4.77;;;33.10;99.90;;;;;;5076359;28;20460;-73
2023/07/07 11:08:58;;;;;;;14.38;5.10;;;33.20;99.90;;;;;;5075255;28;20420;-73
2023/07/07 11:12:08;;;;;;;14.00;5.65;;;33.20;99.90;;;;;;5045516;28;20458;-72
2023/07/07 11:15:26;;;;;;;12.50;5.20;;;33.20;99.90;;;;;;5060539;28;20924;-72
2023/07/07 11:18:17;;;;;;;13.50;5.18;;;32.90;99.90;;;;;;5067590;28;20472;-72
2023/07/07 11:20:43;;;;;;;11.23;4.20;;;33.30;99.90;;;;;;5072835;28;20399;-72
2023/07/07 11:23:24;;;;;;;14.87;5.97;;;33.50;99.90;;;;;;5072205;28;20876;-72
2023/07/07 11:26:13;;;;;;;13.82;5.80;;;33.40;99.90;;;;;;5074584;28;20475;-72
2023/07/07 11:28:53;;;;;;;13.13;5.40;;;33.40;99.90;;;;;;5071380;28;20404;-72
2023/07/07 11:31:48;;;;;;;14.38;5.60;;;33.70;99.90;;;;;;5071323;28;20407;-73
2023/07/07 11:34:28;;;;;;;13.60;5.90;;;33.40;99.90;;;;;;5071431;28;20384;-73
2023/07/07 11:36:57;;;;;;;13.18;4.88;;;33.50;99.90;;;;;;5071952;28;20391;-72
2023/07/07 11:39:52;;;;;;;12.95;5.05;;;33.50;99.90;;;;;;5071255;28;20422;-72
2023/07/07 11:42:45;;;;;;;12.75;5.28;;;33.70;99.90;;;;;;5052923;28;20418;-73
2023/07/07 11:45:27;;;;;;;12.55;5.50;;;33.90;99.90;;;;;;5070662;28;20391;-72
2023/07/07 11:48:24;;;;;;;13.25;4.95;;;33.70;99.90;;;;;;5070806;28;20517;-72
2023/07/07 11:51:18;;;;;;;14.05;5.13;;;33.60;99.90;;;;;;5066024;28;20403;-71
2023/07/07 11:56:32;;;;;;;13.40;4.80;;;33.70;99.90;;;;;;5120761;22;20446;-69
2023/07/07 11:59:42;;;;;;;11.93;4.38;;;33.90;99.90;;;;;;5068984;28;20521;-69
2023/07/07 12:02:21;;;;;;;12.23;4.97;;;34.10;99.90;;;;;;5053581;28;20382;-69
2023/07/07 12:04:49;;;;;;;14.97;5.53;;;34.20;99.90;;;;;;5059340;28;20774;-69
2023/07/07 12:07:22;;;;;;;13.93;4.53;;;33.90;99.90;;;;;;5069711;28;20471;-69
2023/07/07 12:09:59;;;;;;;12.35;5.13;;;34.00;99.90;;;;;;5069655;28;20399;-70
2023/07/07 12:12:39;;;;;;;12.75;5.07;;;34.20;99.90;;;;;;5068736;28;20490;-70
2023/07/07 12:15:15;;;;;;;14.40;5.15;;;34.00;99.90;;;;;;5068118;28;20419;-70
2023/07/07 12:18:01;;;;;;;12.70;4.38;;;33.70;99.90;;;;;;5069214;28;20384;-70
2023/07/07 12:20:32;;;;;;;12.90;4.67;;;33.80;99.90;;;;;;5070955;28;20421;-71
2023/07/07 12:23:00;;;;;;;13.10;4.50;;;33.70;99.90;;;;;;5070735;28;20380;-71
2023/07/07 12:25:28;;;;;;;10.75;4.75;;;33.30;99.90;;;;;;5057905;28;20401;-71
2023/07/07 12:27:55;;;;;;;13.27;4.65;;;33.10;99.90;;;;;;5050853;28;20382;-71
2023/07/07 12:30:24;;;;;;;12.63;5.10;;;33.40;99.90;;;;;;5062643;28;20894;-71
2023/07/07 12:32:50;;;;;;;13.90;4.82;;;33.70;99.90;;;;;;5070536;28;20408;-70
2023/07/07 12:35:25;;;;;;;10.90;4.30;;;33.70;99.90;;;;;;5069777;28;20387;-71
2023/07/07 12:37:50;;;;;;;13.98;3.85;;;34.00;99.90;;;;;;5069909;28;20400;-70
2023/07/07 12:40:17;;;;;;;12.00;4.63;;;34.10;99.90;;;;;;5069680;28;20917;-70
2023/07/07 12:42:45;;;;;;;11.20;4.40;;;34.10;99.90;;;;;;5060069;28;20394;-71
2023/07/07 12:45:30;;;;;;;14.43;4.50;;;34.30;99.90;;;;;;5069858;28;20392;-71
2023/07/07 12:48:14;;;;;;;11.57;4.70;;;34.50;99.90;;;;;;5069865;28;20544;-70
2023/07/07 12:50:42;;;;;;;10.97;4.63;;;34.60;99.90;;;;;;5069487;28;20422;-71
2023/07/07 12:53:30;;;;;;;11.40;4.40;;;34.40;99.90;;;;;;5068668;28;20829;-71
2023/07/07 12:56:06;;;;;;;11.30;4.72;;;34.30;99.90;;;;;;5067766;28;20399;-72
2023/07/07 12:58:42;;;;;;;13.60;4.78;;;33.90;99.90;;;;;;5068467;28;20420;-70
2023/07/07 13:01:13;;;;;;;11.90;4.70;;;33.70;99.90;;;;;;5068818;28;20388;-70
2023/07/07 13:03:54;;;;;;;12.00;4.50;;;33.50;99.90;;;;;;5068548;28;20391;-70
2023/07/07 13:06:30;;;;;;;10.75;4.40;;;33.70;99.90;;;;;;5069599;28;20414;-70
2023/07/07 13:09:14;;;;;;;10.85;4.10;;;33.90;99.90;;;;;;5069252;28;20443;-70
2023/07/07 13:11:41;;;;;;;14.32;4.57;;;34.00;99.90;;;;;;5068905;28;20529;-70